sensor_id;sensor_type;location;lat;lon;timestamp;temperature;humidity
70076;DHT22;63241;51.056;3.698;2023-08-20T01:01:14;19.90;99.90
70076;DHT22;63241;51.056;3.698;2023-08-20T01:04:29;19.80;99.90
70076;DHT22;63241;51.056;3.698;2023-08-20T01:07:39;19.60;99.90
70076;DHT22;63241;51.056;3.698;2023-08-20T01:10:43;19.50;99.90
70076;DHT22;63241;51.056;3.698;2023-08-20T04:15:28;17.90;99.90
70076;DHT22;63241;51.056;3.698;2023-08-20T04:18:14;17.70;99.90
70076;DHT22;63241;51.056;3.698;2023-08-20T04:21:22;17.60;99.90
70076;DHT22;63241;51.056;3.698;2023-08-20T04:24:15;17.50;99.90
70076;DHT22;63241;51.056;3.698;2023-08-20T04:27:01;17.40;99.90
70076;DHT22;63241;51.056;3.698;2023-08-20T04:29:47;17.40;99.90
70076;DHT22;63241;51.056;3.698;2023-08-20T04:36:29;17.20;99.90
70076;DHT22;63241;51.056;3.698;2023-08-20T04:39:15;17.20;99.90
70076;DHT22;63241;51.056;3.698;2023-08-20T04:42:07;17.10;99.90
70076;DHT22;63241;51.056;3.698;2023-08-20T04:44:50;17.10;99.90
70076;DHT22;63241;51.056;3.698;2023-08-20T04:51:40;17.00;99.90
70076;DHT22;63241;51.056;3.698;2023-08-20T04:54:27;17.00;99.90
70076;DHT22;63241;51.056;3.698;2023-08-20T04:57:13;17.00;99.90
70076;DHT22;63241;51.056;3.698;2023-08-20T05:04:10;17.00;99.90
70076;DHT22;63241;51.056;3.698;2023-08-20T05:06:57;17.00;99.90
70076;DHT22;63241;51.056;3.698;2023-08-20T05:09:43;17.10;99.90
70076;DHT22;63241;51.056;3.698;2023-08-20T05:12:29;17.20;99.90
70076;DHT22;63241;51.056;3.698;2023-08-20T05:19:04;17.30;99.90
70076;DHT22;63241;51.056;3.698;2023-08-20T05:21:49;17.40;99.90
70076;DHT22;63241;51.056;3.698;2023-08-20T05:24:37;17.50;99.90
70076;DHT22;63241;51.056;3.698;2023-08-20T05:31:37;17.70;99.90
70076;DHT22;63241;51.056;3.698;2023-08-20T05:34:22;18.30;99.90
70076;DHT22;63241;51.056;3.698;2023-08-20T05:37:08;19.40;99.90
70076;DHT22;63241;51.056;3.698;2023-08-20T05:39:55;19.80;99.90
70076;DHT22;63241;51.056;3.698;2023-08-20T07:50:42;49.60;23.40
70076;DHT22;63241;51.056;3.698;2023-08-20T07:53:29;48.80;23.00
70076;DHT22;63241;51.056;3.698;2023-08-20T07:56:15;50.10;22.70
70076;DHT22;63241;51.056;3.698;2023-08-20T07:59:11;51.20;21.50
70076;DHT22;63241;51.056;3.698;2023-08-20T08:02:24;52.10;21.30
70076;DHT22;63241;51.056;3.698;2023-08-20T08:05:10;52.60;20.20
70076;DHT22;63241;51.056;3.698;2023-08-20T08:07:58;52.70;20.40
70076;DHT22;63241;51.056;3.698;2023-08-20T08:11:05;53.20;20.10
70076;DHT22;63241;51.056;3.698;2023-08-20T08:14:23;53.10;19.80
70076;DHT22;63241;51.056;3.698;2023-08-20T08:17:09;53.60;19.80
70076;DHT22;63241;51.056;3.698;2023-08-20T08:19:55;54.00;19.40
70076;DHT22;63241;51.056;3.698;2023-08-20T08:22:42;52.60;19.80
70076;DHT22;63241;51.056;3.698;2023-08-20T08:29:05;54.10;18.90
70076;DHT22;63241;51.056;3.698;2023-08-20T08:31:50;54.40;18.90
70076;DHT22;63241;51.056;3.698;2023-08-20T08:34:36;54.30;19.20
70076;DHT22;63241;51.056;3.698;2023-08-20T08:37:22;53.90;19.20
70076;DHT22;63241;51.056;3.698;2023-08-20T08:43:21;54.80;19.20
70076;DHT22;63241;51.056;3.698;2023-08-20T08:46:12;55.40;19.10
70076;DHT22;63241;51.056;3.698;2023-08-20T09:38:28;56.10;17.50
70076;DHT22;63241;51.056;3.698;2023-08-20T09:41:15;56.00;17.30
70076;DHT22;63241;51.056;3.698;2023-08-20T09:44:02;56.60;16.70
70076;DHT22;63241;51.056;3.698;2023-08-20T09:47:14;56.70;16.90
70076;DHT22;63241;51.056;3.698;2023-08-20T09:50:18;55.90;17.10
70076;DHT22;63241;51.056;3.698;2023-08-20T09:53:10;56.90;17.70
70076;DHT22;63241;51.056;3.698;2023-08-20T09:58:48;55.20;17.70
70076;DHT22;63241;51.056;3.698;2023-08-20T10:01:35;55.40;17.50
70076;DHT22;63241;51.056;3.698;2023-08-20T10:04:21;56.20;17.50
70076;DHT22;63241;51.056;3.698;2023-08-20T10:07:08;56.80;16.70
70076;DHT22;63241;51.056;3.698;2023-08-20T10:09:54;56.20;16.80
70076;DHT22;63241;51.056;3.698;2023-08-20T10:12:57;55.80;17.00
70076;DHT22;63241;51.056;3.698;2023-08-20T10:16:02;55.90;17.10
70076;DHT22;63241;51.056;3.698;2023-08-20T10:18:48;55.10;16.90
70076;DHT22;63241;51.056;3.698;2023-08-20T10:21:34;55.90;17.00
70076;DHT22;63241;51.056;3.698;2023-08-20T10:24:20;54.70;16.90
70076;DHT22;63241;51.056;3.698;2023-08-20T10:30:36;55.00;17.40
70076;DHT22;63241;51.056;3.698;2023-08-20T10:33:23;54.20;17.20
70076;DHT22;63241;51.056;3.698;2023-08-20T10:36:14;53.00;18.40
70076;DHT22;63241;51.056;3.698;2023-08-20T10:39:13;54.10;18.00
70076;DHT22;63241;51.056;3.698;2023-08-20T10:45:24;55.30;17.60
70076;DHT22;63241;51.056;3.698;2023-08-20T10:48:12;55.40;17.40
70076;DHT22;63241;51.056;3.698;2023-08-20T10:50:58;55.00;17.10
70076;DHT22;63241;51.056;3.698;2023-08-20T10:57:20;55.90;17.10
70076;DHT22;63241;51.056;3.698;2023-08-20T11:00:07;55.50;17.00
70076;DHT22;63241;51.056;3.698;2023-08-20T11:02:58;54.60;17.20
70076;DHT22;63241;51.056;3.698;2023-08-20T11:06:10;53.30;18.00
70076;DHT22;63241;51.056;3.698;2023-08-20T11:09:29;53.80;17.60
70076;DHT22;63241;51.056;3.698;2023-08-20T11:12:15;53.90;17.70
70076;DHT22;63241;51.056;3.698;2023-08-20T11:15:02;54.00;17.50
70076;DHT22;63241;51.056;3.698;2023-08-20T11:17:48;54.20;17.30
70076;DHT22;63241;51.056;3.698;2023-08-20T11:21:12;54.30;17.60
70076;DHT22;63241;51.056;3.698;2023-08-20T11:24:32;55.00;17.30
70076;DHT22;63241;51.056;3.698;2023-08-20T11:27:18;53.80;18.00
70076;DHT22;63241;51.056;3.698;2023-08-20T11:30:04;54.20;18.10
70076;DHT22;63241;51.056;3.698;2023-08-20T11:33:25;53.80;18.10
70076;DHT22;63241;51.056;3.698;2023-08-20T11:36:35;54.20;18.10
70076;DHT22;63241;51.056;3.698;2023-08-20T11:39:22;53.60;18.50
70076;DHT22;63241;51.056;3.698;2023-08-20T11:42:09;53.50;18.10
70076;DHT22;63241;51.056;3.698;2023-08-20T11:44:56;53.00;18.40
70076;DHT22;63241;51.056;3.698;2023-08-20T11:48:08;53.60;18.20
70076;DHT22;63241;51.056;3.698;2023-08-20T11:51:25;53.10;17.90
70076;DHT22;63241;51.056;3.698;2023-08-20T11:54:16;52.50;18.90
70076;DHT22;63241;51.056;3.698;2023-08-20T11:57:04;52.40;18.90
70076;DHT22;63241;51.056;3.698;2023-08-20T11:59:51;52.00;19.00
70076;DHT22;63241;51.056;3.698;2023-08-20T12:03:08;52.40;19.00
70076;DHT22;63241;51.056;3.698;2023-08-20T12:05:55;52.30;18.80
70076;DHT22;63241;51.056;3.698;2023-08-20T12:08:41;52.50;19.00
70076;DHT22;63241;51.056;3.698;2023-08-20T12:11:28;52.60;18.70
70076;DHT22;63241;51.056;3.698;2023-08-20T12:21:19;50.80;19.70
70076;DHT22;63241;51.056;3.698;2023-08-20T12:24:10;51.20;19.50
70076;DHT22;63241;51.056;3.698;2023-08-20T12:26:57;50.30;19.90
70076;DHT22;63241;51.056;3.698;2023-08-20T12:33:33;50.90;20.00
70076;DHT22;63241;51.056;3.698;2023-08-20T12:36:20;51.40;19.90
70076;DHT22;63241;51.056;3.698;2023-08-20T12:39:06;50.30;19.60
70076;DHT22;63241;51.056;3.698;2023-08-20T12:45:38;50.60;19.90
70076;DHT22;63241;51.056;3.698;2023-08-20T12:48:25;49.50;20.70
70076;DHT22;63241;51.056;3.698;2023-08-20T12:51:11;48.50;21.20
70076;DHT22;63241;51.056;3.698;2023-08-20T12:53:59;48.60;21.30
70076;DHT22;63241;51.056;3.698;2023-08-20T12:57:02;47.60;22.00
70076;DHT22;63241;51.056;3.698;2023-08-20T12:59:53;47.10;21.90
70076;DHT22;63241;51.056;3.698;2023-08-20T13:02:41;47.40;22.00
70076;DHT22;63241;51.056;3.698;2023-08-20T13:05:28;47.90;21.80
70076;DHT22;63241;51.056;3.698;2023-08-20T13:08:25;48.50;22.10
70076;DHT22;63241;51.056;3.698;2023-08-20T13:14:51;48.90;21.40
70076;DHT22;63241;51.056;3.698;2023-08-20T13:17:38;48.80;21.40
70076;DHT22;63241;51.056;3.698;2023-08-20T13:20:24;48.50;21.70
70076;DHT22;63241;51.056;3.698;2023-08-20T13:23:30;47.80;22.10
70076;DHT22;63241;51.056;3.698;2023-08-20T13:26:21;47.60;22.10
70076;DHT22;63241;51.056;3.698;2023-08-20T13:29:08;47.80;21.80
70076;DHT22;63241;51.056;3.698;2023-08-20T13:31:54;47.70;21.70
70076;DHT22;63241;51.056;3.698;2023-08-20T13:34:40;47.90;22.20
70076;DHT22;63241;51.056;3.698;2023-08-20T13:37:52;47.50;22.10
70076;DHT22;63241;51.056;3.698;2023-08-20T13:41:15;47.70;21.70
70076;DHT22;63241;51.056;3.698;2023-08-20T13:44:01;47.30;22.00
70076;DHT22;63241;51.056;3.698;2023-08-20T13:46:48;46.40;23.00
70076;DHT22;63241;51.056;3.698;2023-08-20T13:50:03;45.90;24.10
70076;DHT22;63241;51.056;3.698;2023-08-20T13:53:17;47.10;23.30
70076;DHT22;63241;51.056;3.698;2023-08-20T13:56:04;46.30;23.30
70076;DHT22;63241;51.056;3.698;2023-08-20T13:58:50;45.60;24.00
70076;DHT22;63241;51.056;3.698;2023-08-20T14:01:36;45.40;25.80
70076;DHT22;63241;51.056;3.698;2023-08-20T14:04:32;44.80;26.50
70076;DHT22;63241;51.056;3.698;2023-08-20T14:10:35;42.90;28.00
70076;DHT22;63241;51.056;3.698;2023-08-20T14:13:21;41.80;29.70
70076;DHT22;63241;51.056;3.698;2023-08-20T14:16:08;40.90;30.70
70076;DHT22;63241;51.056;3.698;2023-08-20T14:22:50;39.80;32.10
70076;DHT22;63241;51.056;3.698;2023-08-20T14:25:36;38.80;33.70
70076;DHT22;63241;51.056;3.698;2023-08-20T14:28:24;38.00;35.20
70076;DHT22;63241;51.056;3.698;2023-08-20T14:31:21;37.60;36.00
70076;DHT22;63241;51.056;3.698;2023-08-20T14:34:30;36.90;37.00
70076;DHT22;63241;51.056;3.698;2023-08-20T14:37:16;36.10;38.40
70076;DHT22;63241;51.056;3.698;2023-08-20T14:40:02;35.20;39.50
70076;DHT22;63241;51.056;3.698;2023-08-20T14:42:50;34.90;40.50
70076;DHT22;63241;51.056;3.698;2023-08-20T14:46:02;34.40;41.10
70076;DHT22;63241;51.056;3.698;2023-08-20T14:49:27;34.20;41.90
70076;DHT22;63241;51.056;3.698;2023-08-20T14:52:14;34.10;42.00
70076;DHT22;63241;51.056;3.698;2023-08-20T14:55:04;33.90;42.00
70076;DHT22;63241;51.056;3.698;2023-08-20T14:58:16;33.50;43.10
70076;DHT22;63241;51.056;3.698;2023-08-20T15:01:11;33.20;43.70
70076;DHT22;63241;51.056;3.698;2023-08-20T15:03:59;32.80;44.80
70076;DHT22;63241;51.056;3.698;2023-08-20T15:06:46;32.70;44.60
70076;DHT22;63241;51.056;3.698;2023-08-20T15:09:32;32.40;45.20
70076;DHT22;63241;51.056;3.698;2023-08-20T15:12:24;32.30;45.50
70076;DHT22;63241;51.056;3.698;2023-08-20T15:15:24;32.00;45.60
70076;DHT22;63241;51.056;3.698;2023-08-20T15:18:12;31.90;46.10
70076;DHT22;63241;51.056;3.698;2023-08-20T15:20:59;31.80;46.50
70076;DHT22;63241;51.056;3.698;2023-08-20T15:23:46;31.60;46.80
70076;DHT22;63241;51.056;3.698;2023-08-20T22:52:36;20.80;85.80
70076;DHT22;63241;51.056;3.698;2023-08-20T22:55:22;20.90;85.80
70076;DHT22;63241;51.056;3.698;2023-08-20T22:58:09;20.90;86.60
70076;DHT22;63241;51.056;3.698;2023-08-20T23:04:56;20.90;88.30
